Time;durP1;ratioP1;P1;durP2;ratioP2;P2;SDS_P1;SDS_P2;PMS_P1;PMS_P2;Temp;Humidity;BMP_temperature;BMP_pressure;BME280_temperature;BME280_humidity;BME280_pressure;Samples;Min_cycle;Max_cycle;Signal;HPM_P1;HPM_P2
2023/09/30 20:16:19;;;;;;;2.05;1.20;;;;;;;22.45;44.74;101538.03;4634351;27;20382;-62
2023/09/30 20:18:31;;;;;;;1.75;1.30;;;;;;;22.48;43.93;101547.97;4630013;27;20041;-63
2023/09/30 20:20:41;;;;;;;1.67;0.98;;;;;;;22.50;44.39;101551.34;4629507;27;20563;-63
2023/09/30 20:22:52;;;;;;;2.53;1.10;;;;;;;22.50;44.24;101551.34;4629707;27;20031;-64
2023/09/30 20:25:03;;;;;;;1.60;1.20;;;;;;;22.51;44.86;101536.59;4630321;27;20023;-63
2023/09/30 20:27:13;;;;;;;1.63;0.95;;;;;;;22.48;44.59;101533.59;4627786;27;20039;-64
2023/09/30 20:29:24;;;;;;;1.55;1.02;;;;;;;22.49;44.76;101541.00;4629479;27;20072;-64
2023/09/30 20:31:36;;;;;;;1.35;0.90;;;;;;;22.51;44.94;101535.75;4629687;27;20031;-64
2023/09/30 20:33:48;;;;;;;2.00;1.00;;;;;;;22.43;44.78;101522.31;4617893;27;20034;-63
2023/09/30 20:35:58;;;;;;;1.80;1.08;;;;;;;22.41;44.94;101516.06;4629620;27;20074;-63
2023/09/30 20:38:08;;;;;;;1.63;1.00;;;;;;;22.46;44.20;101512.94;4629699;27;20109;-64
2023/09/30 20:40:19;;;;;;;2.25;1.10;;;;;;;22.43;44.17;101516.53;4628948;27;20064;-64
2023/09/30 20:42:29;;;;;;;1.20;1.00;;;;;;;22.48;44.08;101522.94;4617466;27;20101;-64
2023/09/30 20:44:40;;;;;;;1.55;1.00;;;;;;;22.45;44.74;101514.16;4628783;27;20087;-64
2023/09/30 20:46:50;;;;;;;1.10;0.88;;;;;;;22.46;44.29;101518.72;4627613;27;20030;-64
2023/09/30 20:49:03;;;;;;;1.38;1.00;;;;;;;22.46;43.82;101527.34;4629176;27;20034;-63
2023/09/30 20:51:13;;;;;;;2.88;1.30;;;;;;;22.48;43.51;101530.72;4627271;27;20035;-64
2023/09/30 20:53:27;;;;;;;1.00;0.90;;;;;;;22.50;43.75;101529.13;4627940;27;20104;-64
2023/09/30 20:55:38;;;;;;;1.52;0.98;;;;;;;22.41;43.56;101508.28;4629054;27;20023;-64
2023/09/30 20:57:48;;;;;;;2.35;1.00;;;;;;;22.49;43.18;101529.50;4630058;27;20043;-64
2023/09/30 20:59:59;;;;;;;1.30;0.90;;;;;;;22.43;43.51;101517.41;4628467;27;20035;-64
2023/09/30 21:02:09;;;;;;;1.45;1.00;;;;;;;22.45;43.17;101525.66;4627562;27;20035;-64
2023/09/30 21:04:21;;;;;;;1.95;1.20;;;;;;;22.48;43.14;101531.56;4627596;27;20540;-64
2023/09/30 21:06:31;;;;;;;1.65;1.10;;;;;;;22.48;43.20;101524.94;4629741;27;20038;-64
2023/09/30 21:08:42;;;;;;;1.38;1.00;;;;;;;22.44;43.44;101518.25;4628316;27;20509;-64
2023/09/30 21:10:52;;;;;;;2.22;1.13;;;;;;;22.46;43.64;101515.84;4629249;27;20035;-64
2023/09/30 21:13:03;;;;;;;1.83;1.20;;;;;;;22.48;43.71;101524.94;4629992;27;20118;-64
2023/09/30 21:15:13;;;;;;;1.48;0.98;;;;;;;22.43;43.47;101520.28;4629127;27;20051;-64
2023/09/30 21:17:25;;;;;;;2.17;1.15;;;;;;;22.50;43.53;101522.56;4629887;27;20015;-64
2023/09/30 21:19:36;;;;;;;2.05;1.23;;;;;;;22.51;43.63;101524.22;4628608;27;20034;-64
2023/09/30 21:21:46;;;;;;;1.00;0.82;;;;;;;22.44;44.17;101506.75;4629121;27;20034;-64
2023/09/30 21:23:57;;;;;;;1.25;1.00;;;;;;;22.47;44.01;101518.34;4629636;27;20861;-64
2023/09/30 21:26:14;;;;;;;1.25;1.00;;;;;;;22.47;44.07;101512.59;4625506;27;20029;-64
2023/09/30 21:28:24;;;;;;;1.27;0.95;;;;;;;22.49;43.97;101518.84;4615067;27;20895;-64
2023/09/30 21:30:38;;;;;;;0.93;0.90;;;;;;;22.51;43.66;101525.09;4614707;27;20112;-64
2023/09/30 21:32:48;;;;;;;1.40;1.13;;;;;;;22.48;44.13;101514.28;4614092;27;20066;-64
2023/09/30 21:34:59;;;;;;;1.33;1.10;;;;;;;22.43;43.90;101505.88;4598913;27;20128;-64
2023/09/30 21:37:09;;;;;;;1.13;1.00;;;;;;;22.46;43.80;101510.06;4615581;27;20035;-64
2023/09/30 21:39:20;;;;;;;1.95;1.05;;;;;;;22.45;44.01;101511.28;4614506;27;20032;-64
2023/09/30 21:41:31;;;;;;;1.42;1.10;;;;;;;22.47;44.45;101517.53;4614983;27;20034;-64
2023/09/30 21:43:42;;;;;;;1.67;1.05;;;;;;;22.50;44.17;101522.56;4616906;27;20024;-64
2023/09/30 21:45:52;;;;;;;1.55;1.00;;;;;;;22.50;44.28;101522.56;4603764;27;20120;-64
2023/09/30 21:48:04;;;;;;;1.17;0.90;;;;;;;22.50;44.16;101522.56;4615263;27;20110;-64
2023/09/30 21:50:15;;;;;;;1.80;1.13;;;;;;;22.45;44.14;101514.16;4615415;27;20039;-64
2023/09/30 21:52:26;;;;;;;1.20;1.00;;;;;;;22.49;43.95;101518.84;4615369;27;20023;-64
2023/09/30 21:54:36;;;;;;;1.48;1.00;;;;;;;22.44;44.28;101510.44;4614823;27;20147;-64
2023/09/30 21:56:47;;;;;;;1.90;1.10;;;;;;;22.41;44.65;101516.91;4615060;27;20152;-64
2023/09/30 21:58:57;;;;;;;1.30;0.90;;;;;;;22.48;44.66;101530.72;4616287;27;20036;-64
2023/09/30 22:01:09;;;;;;;2.28;1.17;;;;;;;22.47;44.63;101529.03;4615310;27;20035;-64
2023/09/30 22:03:22;;;;;;;3.10;1.10;;;;;;;22.48;44.32;101547.97;4615703;27;20041;-64
2023/09/30 22:05:33;;;;;;;1.13;1.00;;;;;;;22.47;44.06;101549.19;4616412;27;20054;-64
2023/09/30 22:07:43;;;;;;;1.42;1.00;;;;;;;22.49;44.49;101549.63;4616543;27;20458;-64
2023/09/30 22:09:53;;;;;;;1.38;1.13;;;;;;;22.48;44.58;101553.72;4617259;27;20061;-64
2023/09/30 22:12:04;;;;;;;2.10;1.10;;;;;;;22.41;44.26;101536.19;4596177;27;20065;-64
2023/09/30 22:14:15;;;;;;;1.88;1.10;;;;;;;22.50;44.75;101551.34;4616075;27;20400;-64
2023/09/30 22:16:26;;;;;;;1.92;1.00;;;;;;;22.50;44.78;101539.81;4597910;27;20047;-64
2023/09/30 22:18:37;;;;;;;1.30;1.20;;;;;;;22.45;44.27;101546.66;4616781;27;20024;-64
2023/09/30 22:20:47;;;;;;;1.55;1.25;;;;;;;22.47;44.53;101541.38;4614783;27;20035;-64
2023/09/30 22:22:57;;;;;;;1.40;1.20;;;;;;;22.38;44.16;101526.25;4616482;27;20016;-64
2023/09/30 22:25:09;;;;;;;2.13;1.05;;;;;;;22.49;44.12;101543.88;4614923;27;20403;-64
2023/09/30 22:27:19;;;;;;;2.47;1.20;;;;;;;22.48;43.85;101524.94;4616945;27;20028;-64
2023/09/30 22:29:29;;;;;;;1.23;1.05;;;;;;;22.44;43.80;101512.50;4614189;27;20019;-64
2023/09/30 22:31:41;;;;;;;1.40;1.00;;;;;;;22.46;43.73;101510.94;4615700;27;20042;-64
2023/09/30 22:33:51;;;;;;;2.20;1.10;;;;;;;22.45;43.72;101514.16;4615111;27;20031;-63
2023/09/30 22:36:02;;;;;;;2.10;1.20;;;;;;;22.40;43.91;101508.63;4614439;27;20460;-64
2023/09/30 22:38:13;;;;;;;1.30;1.00;;;;;;;22.48;43.94;101530.72;4614629;27;20046;-64
2023/09/30 22:40:23;;;;;;;2.15;1.10;;;;;;;22.46;44.11;101533.09;4616399;27;20044;-64
2023/09/30 22:42:34;;;;;;;1.98;1.10;;;;;;;22.46;43.87;101525.31;4601742;27;20028;-64
2023/09/30 22:44:44;;;;;;;1.75;1.05;;;;;;;22.48;44.22;101524.94;4613924;27;20035;-64
2023/09/30 22:46:55;;;;;;;2.13;1.27;;;;;;;22.46;44.00;101527.34;4613447;27;20156;-64
2023/09/30 22:49:06;;;;;;;1.85;1.30;;;;;;;22.42;43.71;101514.88;4615165;27;21253;-64
2023/09/30 22:51:18;;;;;;;2.83;1.17;;;;;;;22.41;43.87;101508.28;4614890;27;20039;-64
2023/09/30 22:53:30;;;;;;;2.08;1.17;;;;;;;22.46;43.79;101512.94;4612348;27;21248;-64
2023/09/30 22:55:40;;;;;;;1.45;1.10;;;;;;;22.40;43.36;101509.50;4615697;27;20919;-64
2023/09/30 22:57:53;;;;;;;2.38;1.30;;;;;;;22.44;43.75;101516.19;4615572;27;20084;-64
2023/09/30 23:00:06;;;;;;;1.40;0.95;;;;;;;22.47;47.02;101517.53;4615149;27;20035;-64
2023/09/30 23:02:16;;;;;;;1.40;1.20;;;;;;;22.43;48.53;101505.88;4614406;27;20119;-64
2023/09/30 23:04:27;;;;;;;1.20;1.00;;;;;;;22.43;49.79;101505.03;4615169;27;20038;-64
2023/09/30 23:06:39;;;;;;;1.27;1.00;;;;;;;22.47;50.67;101508.91;4614309;27;20025;-64
2023/09/30 23:08:50;;;;;;;1.25;0.90;;;;;;;22.48;49.86;101513.44;4614086;27;20027;-64
2023/09/30 23:11:10;;;;;;;1.30;0.82;;;;;;;22.48;50.05;101502.78;4615402;27;20046;-64
2023/09/30 23:13:20;;;;;;;1.02;0.88;;;;;;;22.45;49.25;101502.66;4614610;27;20031;-64
2023/09/30 23:15:30;;;;;;;0.90;0.80;;;;;;;22.47;49.55;101511.78;4615442;27;20067;-64
2023/09/30 23:17:42;;;;;;;1.58;0.90;;;;;;;22.49;49.49;101512.22;4615093;27;20028;-64
2023/09/30 23:19:52;;;;;;;1.00;0.80;;;;;;;22.44;49.42;101495.22;4615157;27;20051;-65
2023/09/30 23:22:03;;;;;;;1.20;0.82;;;;;;;22.41;49.47;101487.28;4615135;27;20122;-64
2023/09/30 23:24:15;;;;;;;1.00;0.70;;;;;;;22.45;48.80;101499.78;4615546;27;20055;-65
2023/09/30 23:26:25;;;;;;;1.20;0.80;;;;;;;22.39;48.53;101481.09;4614361;27;20556;-64
2023/09/30 23:28:37;;;;;;;0.95;0.80;;;;;;;22.34;48.61;101459.16;4615030;27;20375;-64
2023/09/30 23:30:48;;;;;;;1.42;0.80;;;;;;;22.43;48.39;101474.25;4615678;27;20050;-64
2023/09/30 23:33:02;;;;;;;1.25;0.90;;;;;;;22.43;48.24;101477.13;4614933;27;20042;-64
2023/09/30 23:35:14;;;;;;;1.42;1.00;;;;;;;22.45;48.41;101476.75;4614982;27;20047;-64
2023/09/30 23:37:25;;;;;;;1.52;0.80;;;;;;;22.44;48.65;101480.84;4615243;27;20015;-64
2023/09/30 23:39:37;;;;;;;1.30;1.00;;;;;;;22.41;48.44;101470.03;4614760;27;20043;-65
2023/09/30 23:41:48;;;;;;;1.20;0.90;;;;;;;22.47;47.72;101486.69;4614438;27;20039;-64
2023/09/30 23:43:59;;;;;;;1.75;1.00;;;;;;;22.40;47.79;101474.97;4614486;27;20035;-64
2023/09/30 23:46:09;;;;;;;1.08;0.90;;;;;;;22.44;47.70;101489.47;4613619;27;20023;-64
2023/09/30 23:48:21;;;;;;;1.65;1.00;;;;;;;22.40;47.71;101486.47;4613981;27;20042;-64
2023/09/30 23:50:34;;;;;;;1.50;1.10;;;;;;;22.39;47.81;101481.09;4614084;27;20096;-64
2023/09/30 23:52:49;;;;;;;1.20;0.90;;;;;;;22.42;47.08;101477.47;4612992;27;20035;-64
2023/09/30 23:55:02;;;;;;;1.10;1.00;;;;;;;22.44;47.28;101475.09;4610912;27;20031;-64
2023/09/30 23:57:14;;;;;;;1.42;0.88;;;;;;;22.39;47.70;101469.56;4613802;27;20035;-64
2023/09/30 23:59:24;;;;;;;1.30;0.90;;;;;;;22.41;47.83;101461.41;4613722;27;20980;-64
